Airfield :
LOGIN :

Register | Disclaimer

   EN    FR    IT 

 










Legend :    VFR   Marginal VFR   IFR   Intensive IFR   Very Intensive IFR
Visi :
Ceiling :
>= 8 km
>= 3000ft
5 to 8 km
1000 to 3000 ft
1500m to 5 km
500 to 1000 ft
800 to 1500m
200 to 500 ft
< 800m
< 200 ft
Symbols :   Thunderstorms  Fog  Heavy snow  Heavy precipitations  Wind > 20 kt
SIGMETs :     Misc.  Thunderstorms  Icing  Turbulence  Mountain Waves  Volcanic Ashes







- Airport Elevation : 1416 ft
- IATA code : ZRH


LSZH - Zurich

CURRENT METAR :
  • 211620Z 13004KT 9999 FEW030 SCT035 BKN095 03/00 Q1018 NOSIG

EXPIRED METARs :
  • 211550Z 15002KT 9999 FEW030 SCT035 BKN040 03/00 Q1018 NOSIG
  • 211520Z 20002KT 9999 FEW028 SCT045 BKN100 03/M00 Q1018 NOSIG
  • 211450Z 18002KT 9999 SCT035 BKN100 03/M00 Q1018 NOSIG
  • 211420Z 23005KT 9999 FEW030 SCT040 BKN100 04/M00 Q1018 NOSIG
  • 211350Z VRB01KT 9999 FEW016 SCT020 BKN034 04/M01 Q1018 NOSIG
  • 211320Z VRB02KT 9999 FEW016 SCT019 BKN037 04/M01 Q1017 NOSIG

TAF TAF LSZH
Valid from the 21 at 15:00 until the 22 at 21:00 UTC


211425Z 2115/2221 VRB03KT 9999 FEW015 SCT020 BKN040 TX04/2115Z TN02/2200Z TX08/2215Z
BECMG 2121/2201 21010KT RA BKN010
PROB30 2121/2124 3000 RASN BKN009
TEMPO 2206/2221 24015G25KT 4000 +RA BKN007
ATIS : +41 43 816 2295 (DEP) +41 43 816 2294 (ARR)
No reported NOTAMs for that airfield.
1 SIGMET reported for the Switzerland FIR (LSAS) :
 
Severe icing
LSAS SIGMET 6 VALID 211450/211850 LSZH
LSAS SWITZERLAND FIR/UIR SEV ICE FCST N OF N4551 AND W OF E00826 SFC/FL200 MOV E NC=



MET'MAP, your aeronautical weather chart ! - Copyright ORBIFLY December 2007 - Disclaimer

ORBIFLY MET'MAP TEAM :

Programming & Development : Alexandra Zaïnal
Concept & Development : Baudouin d'Aumeries
Co-Development & Prog : Marc-Olivier Méhu
Technical & hardware support : Manuel Goepfert

Contact : metmap@orbifly.com




SOURCES & CREDITS :

   NOAA